CYEG/YEG METAR and TAF weather

Enter ICAO airport designator
Station Type Date Time Source
CYEG METAR 2018/07/21 04:00 UTC NOAA

CYEG 210400Z 31006KT 15SM FEW025 FEW060TCU FEW093 FEW250 12/10 A2991 RMK CU1TCU1ACC1CI1 CU TR TCU TR PRESRR SLP136 DENSITY ALT 2600FT


Station Type Date Time Source
CYEG Decoded METAR 2018/07/21 04:00 UTC NOAA

Edmonton International, Alta., Canada (CYEG) 53-18N 113-35W 723M
Jul 21, 2018 - 12:00 AM EDT / 2018.07.21 0400 UTC
Wind: from the NW (310 degrees) at 7 MPH (6 KT):0
Visibility: 15 mile(s):0
Sky conditions: mostly clear
Weather: Towering cumulus clouds observed
Temperature: 53 F (12 C)
Dew Point: 50 F (10 C)
Relative Humidity: 87%
Pressure (altimeter): 29.91 in. Hg (1012 hPa)
Pressure tendency: rising rapidly
ob: CYEG 210400Z 31006KT 15SM FEW025 FEW060TCU FEW093 FEW250 12/10 A2991 RMK CU1TCU1ACC1CI1 CU TR TCU TR PRESRR SLP136 DENSITY ALT 2600FT
cycle: 4

Station Type Date Time Source
CYEG TAF 2018/07/21 03:42 UTC NOAA

TAF TAF CYEG 210238Z 2103/2124 30008KT P6SM FEW012 SCT040 BKN100 PROB30 2103/2104 VRB20G30KT P6SM -TSRA BKN040CB
FM210500 28008KT P6SM FEW008 SCT120 PROB30 2106/2112 2SM BR
FM211600 15006KT P6SM FEW080
FM211900 14010KT P6SM FEW030 BKN060
TEMPO 2119/2123 P6SM -SHRA
FM212300 27012KT P6SM -SHRA SCT030 BKN060
TEMPO 2123/2124 VRB20G30KT 5SM TSRA BR BKN025CB OVC050
RMK NXT FCST BY 210600Z


Example: see airport list